Cairo, Egypt
Current Conditions -  °F | °C
As of 12:30 PM on Tuesday 27 Jan 2015 (Local Time) from HECA Reporting Station
Clear Clear  
Wind Chill: 68°   Ceiling: Unl
Heat Index: 68°   Visibility: 4mi
Dew Point: 50°   Wind: 5mph
Humidity: 52%   Direction: 50°NE
Pressure: 29.94"   Gusts: NA
Location:  30.06°N, 31.25°E
Report Text: HECA 271030Z 05004KT 6000 NSC 20/10 Q1014 NOSIG
Loading
Personal Weather Stations






























Interactive Weather Map New forecast layout! Learn more

10-Day Weather Forecast

Advertisements
Track Severe Weather on mobile